createdAt,value
2016-12-27T00:00:16.056Z,1027.41
2016-12-27T00:00:41.615Z,1027.42
2016-12-27T00:01:07.195Z,1027.4
2016-12-27T00:01:32.758Z,1027.39
2016-12-27T00:01:58.359Z,1027.38
2016-12-27T00:02:23.917Z,1027.36
2016-12-27T00:02:49.496Z,1027.37
2016-12-27T00:03:15.173Z,1027.46
2016-12-27T00:03:40.734Z,1027.44
2016-12-27T00:04:06.317Z,1027.42
2016-12-27T00:04:32.003Z,1027.46
2016-12-27T00:04:57.577Z,1027.5
2016-12-27T00:05:23.151Z,1027.52
2016-12-27T00:05:48.797Z,1027.4
2016-12-27T00:06:14.372Z,1027.53
2016-12-27T00:06:39.972Z,1027.5
2016-12-27T00:07:05.534Z,1027.49
2016-12-27T00:07:31.195Z,1027.46
2016-12-27T00:07:56.777Z,1027.43
2016-12-27T00:08:22.322Z,1027.51
2016-12-27T00:08:47.913Z,1027.53
2016-12-27T00:09:13.564Z,1027.46
2016-12-27T00:09:39.134Z,1027.47
2016-12-27T00:10:04.775Z,1027.54
2016-12-27T00:10:30.371Z,1027.5
2016-12-27T00:10:55.947Z,1027.48
2016-12-27T00:11:21.511Z,1027.43
2016-12-27T00:11:47.082Z,1027.41
2016-12-27T00:12:12.663Z,1027.45
2016-12-27T00:12:38.229Z,1027.52
2016-12-27T00:13:03.813Z,1027.54
2016-12-27T00:13:29.383Z,1027.52
2016-12-27T00:13:54.935Z,1027.51
2016-12-27T00:14:20.590Z,1027.55
2016-12-27T00:14:46.184Z,1027.48
2016-12-27T00:15:11.789Z,1027.49
2016-12-27T00:15:37.390Z,1027.45
2016-12-27T00:16:02.936Z,1027.51
2016-12-27T00:16:28.497Z,1027.49
2016-12-27T00:16:54.056Z,1027.44
2016-12-27T00:17:19.618Z,1027.41
2016-12-27T00:17:45.168Z,1027.4
2016-12-27T00:18:10.728Z,1027.44
2016-12-27T00:18:36.305Z,1027.41
2016-12-27T00:19:01.951Z,1027.41
2016-12-27T00:19:27.516Z,1027.36
2016-12-27T00:19:53.098Z,1027.33
2016-12-27T00:20:18.659Z,1027.34
2016-12-27T00:21:37.754Z,1027.39
2016-12-27T00:22:03.315Z,1027.3
2016-12-27T00:22:28.874Z,1027.39
2016-12-27T00:22:54.442Z,1027.36
2016-12-27T00:23:19.995Z,1027.34
2016-12-27T00:23:45.565Z,1027.4
2016-12-27T00:24:11.130Z,1027.33
2016-12-27T00:24:36.718Z,1027.33
2016-12-27T00:25:02.263Z,1027.31
2016-12-27T00:25:27.821Z,1027.36
2016-12-27T00:25:53.396Z,1027.35
2016-12-27T00:26:18.979Z,1027.33
2016-12-27T00:26:44.527Z,1027.38
2016-12-27T00:27:10.087Z,1027.39
2016-12-27T00:27:35.659Z,1027.4
2016-12-27T00:28:01.253Z,1027.33
2016-12-27T00:28:26.814Z,1027.38
2016-12-27T00:28:52.494Z,1027.37
2016-12-27T00:29:18.042Z,1027.41
2016-12-27T00:29:43.692Z,1027.3
2016-12-27T00:30:09.276Z,1027.38
2016-12-27T00:30:34.835Z,1027.42
2016-12-27T00:31:00.377Z,1027.47
2016-12-27T00:31:25.911Z,1027.41
2016-12-27T00:31:51.510Z,1027.36
2016-12-27T00:32:17.097Z,1027.42
2016-12-27T00:32:42.667Z,1027.41
2016-12-27T00:33:08.216Z,1027.42
2016-12-27T00:33:33.816Z,1027.44
2016-12-27T00:33:59.418Z,1027.42
2016-12-27T00:34:24.983Z,1027.41
2016-12-27T00:34:50.612Z,1027.43
2016-12-27T00:35:16.188Z,1027.48
2016-12-27T00:35:41.756Z,1027.49
2016-12-27T00:36:07.312Z,1027.44
2016-12-27T00:36:33.018Z,1027.41
2016-12-27T00:36:58.586Z,1027.45
2016-12-27T00:37:24.154Z,1027.46
2016-12-27T00:37:49.803Z,1027.49
2016-12-27T00:38:15.455Z,1027.45
2016-12-27T00:38:41.020Z,1027.4
2016-12-27T00:39:06.666Z,1027.54
2016-12-27T00:39:32.246Z,1027.49
2016-12-27T00:39:57.817Z,1027.53
2016-12-27T00:40:23.390Z,1027.5
2016-12-27T00:40:49.110Z,1027.44
2016-12-27T00:41:14.690Z,1027.5
2016-12-27T00:41:40.274Z,1027.5
2016-12-27T00:42:05.843Z,1027.53
2016-12-27T00:42:31.416Z,1027.44
2016-12-27T00:42:56.989Z,1027.48
2016-12-27T00:43:22.544Z,1027.47
2016-12-27T00:43:48.137Z,1027.52
2016-12-27T00:44:13.695Z,1027.61
2016-12-27T00:44:39.285Z,1027.56
2016-12-27T00:45:04.850Z,1027.62
2016-12-27T00:45:30.464Z,1027.65
2016-12-27T00:45:56.109Z,1027.55
2016-12-27T00:46:21.680Z,1027.51
2016-12-27T00:46:47.250Z,1027.55
2016-12-27T00:47:12.866Z,1027.56
2016-12-27T00:47:38.443Z,1027.62
2016-12-27T00:48:04.016Z,1027.61
2016-12-27T00:48:29.574Z,1027.59
2016-12-27T00:48:55.248Z,1027.61
2016-12-27T00:49:20.799Z,1027.66
2016-12-27T00:49:46.358Z,1027.63
2016-12-27T00:50:11.927Z,1027.69
2016-12-27T00:50:37.496Z,1027.69
2016-12-27T00:51:03.056Z,1027.66
2016-12-27T00:51:28.609Z,1027.62
2016-12-27T00:51:54.170Z,1027.63
2016-12-27T00:52:19.709Z,1027.69
2016-12-27T00:52:45.419Z,1027.73
2016-12-27T00:53:11.000Z,1027.74
2016-12-27T00:53:36.625Z,1027.76
2016-12-27T00:54:02.264Z,1027.74
2016-12-27T00:54:27.833Z,1027.77
2016-12-27T00:54:53.395Z,1027.73
2016-12-27T00:55:19.043Z,1027.73
2016-12-27T00:55:44.595Z,1027.76
2016-12-27T00:56:10.169Z,1027.74
2016-12-27T00:56:35.789Z,1027.72
2016-12-27T00:57:01.379Z,1027.72
2016-12-27T00:57:26.944Z,1027.82
2016-12-27T00:57:52.511Z,1027.85
2016-12-27T00:58:18.085Z,1027.8
2016-12-27T00:58:43.673Z,1027.75
2016-12-27T00:59:09.227Z,1027.79
2016-12-27T00:59:34.787Z,1027.79
2016-12-27T01:00:00.397Z,1027.81
2016-12-27T01:00:26.088Z,1027.82
2016-12-27T01:00:51.656Z,1027.75
2016-12-27T01:01:17.243Z,1027.78
2016-12-27T01:01:42.808Z,1027.75
2016-12-27T01:02:08.394Z,1027.81
2016-12-27T01:02:33.949Z,1027.73
2016-12-27T01:02:59.499Z,1027.79
2016-12-27T01:03:25.068Z,1027.84
2016-12-27T01:03:50.636Z,1027.83
2016-12-27T01:04:16.203Z,1027.92
2016-12-27T01:04:41.780Z,1027.95
2016-12-27T01:05:07.350Z,1027.87
2016-12-27T01:05:32.942Z,1027.91
2016-12-27T01:05:58.499Z,1027.94
2016-12-27T01:06:24.062Z,1027.95
2016-12-27T01:06:49.774Z,1027.87
2016-12-27T01:07:15.346Z,1027.93
2016-12-27T01:07:40.916Z,1028.04
2016-12-27T01:08:06.568Z,1027.97
2016-12-27T01:08:32.169Z,1027.95
2016-12-27T01:08:57.725Z,1028.02
2016-12-27T01:09:23.318Z,1028.03
2016-12-27T01:09:48.927Z,1027.94
2016-12-27T01:10:14.535Z,1027.96
2016-12-27T01:10:40.090Z,1027.97
2016-12-27T01:11:05.639Z,1027.91
2016-12-27T01:11:31.203Z,1027.97
2016-12-27T01:11:56.800Z,1028.06
2016-12-27T01:12:22.364Z,1028
2016-12-27T01:12:47.932Z,1028
2016-12-27T01:13:13.556Z,1028.02
2016-12-27T01:13:39.108Z,1028.07
2016-12-27T01:14:04.682Z,1028.01
2016-12-27T01:14:30.241Z,1028.08
2016-12-27T01:14:55.800Z,1028.04
2016-12-27T01:15:21.373Z,1028.06
2016-12-27T01:15:46.926Z,1028.11
2016-12-27T01:16:12.479Z,1028.1
2016-12-27T01:16:38.042Z,1028.08
2016-12-27T01:17:03.600Z,1028
2016-12-27T01:17:29.173Z,1028.09
2016-12-27T01:17:54.742Z,1028.08
2016-12-27T01:18:20.310Z,1028.12
2016-12-27T01:18:45.891Z,1028.11
2016-12-27T01:19:11.442Z,1028.11
2016-12-27T01:19:37.038Z,1028.16
2016-12-27T01:20:02.596Z,1028.2
2016-12-27T01:20:28.158Z,1028.18
2016-12-27T01:20:53.736Z,1028.22
2016-12-27T01:21:19.288Z,1028.19
2016-12-27T01:21:44.856Z,1028.18
2016-12-27T01:22:10.514Z,1028.23
2016-12-27T01:22:36.077Z,1028.18
2016-12-27T01:23:01.724Z,1028.2
2016-12-27T01:23:27.313Z,1028.21
2016-12-27T01:23:52.886Z,1028.19
2016-12-27T01:24:18.443Z,1028.16
2016-12-27T01:24:44.020Z,1028.11
2016-12-27T01:25:09.584Z,1028.16
2016-12-27T01:25:35.151Z,1028.25
2016-12-27T01:26:00.699Z,1028.23
2016-12-27T01:26:26.267Z,1028.3
2016-12-27T01:26:51.893Z,1028.32
2016-12-27T01:27:17.467Z,1028.28
2016-12-27T01:27:43.040Z,1028.3
2016-12-27T01:28:08.662Z,1028.33
2016-12-27T01:28:34.275Z,1028.32
2016-12-27T01:28:59.832Z,1028.36
2016-12-27T01:29:25.405Z,1028.36
2016-12-27T01:29:50.963Z,1028.39
2016-12-27T01:30:16.538Z,1028.37
2016-12-27T01:30:42.096Z,1028.38
2016-12-27T01:31:07.667Z,1028.37
2016-12-27T01:31:33.227Z,1028.35
2016-12-27T01:31:58.778Z,1028.4
2016-12-27T01:32:24.342Z,1028.35
2016-12-27T01:32:49.899Z,1028.4
2016-12-27T01:33:15.504Z,1028.39
2016-12-27T01:33:41.158Z,1028.36
2016-12-27T01:34:06.744Z,1028.39
2016-12-27T01:34:32.303Z,1028.36
2016-12-27T01:34:57.877Z,1028.39
2016-12-27T01:35:23.428Z,1028.38
2016-12-27T01:35:48.987Z,1028.41
2016-12-27T01:36:14.536Z,1028.37
2016-12-27T01:36:40.126Z,1028.4
2016-12-27T01:37:05.781Z,1028.36
2016-12-27T01:37:31.402Z,1028.3
2016-12-27T01:37:56.956Z,1028.38
2016-12-27T01:38:22.592Z,1028.37
2016-12-27T01:38:48.157Z,1028.43
2016-12-27T01:39:13.742Z,1028.44
2016-12-27T01:39:39.359Z,1028.45
2016-12-27T01:40:04.917Z,1028.46
2016-12-27T01:40:30.514Z,1028.47
2016-12-27T01:40:56.103Z,1028.45
2016-12-27T01:41:21.667Z,1028.5
2016-12-27T01:41:47.243Z,1028.47
2016-12-27T01:42:12.835Z,1028.47
2016-12-27T01:42:38.417Z,1028.53
2016-12-27T01:43:04.125Z,1028.56
2016-12-27T01:43:29.692Z,1028.52
2016-12-27T01:43:55.245Z,1028.53
2016-12-27T01:44:20.786Z,1028.53
2016-12-27T01:44:46.351Z,1028.56
2016-12-27T01:45:12.007Z,1028.54
2016-12-27T01:45:37.566Z,1028.55
2016-12-27T01:46:03.154Z,1028.58
2016-12-27T01:46:28.815Z,1028.53
2016-12-27T01:47:27.428Z,1028.53
2016-12-27T01:47:52.976Z,1028.58
2016-12-27T01:48:18.544Z,1028.65
2016-12-27T01:48:44.099Z,1028.68
2016-12-27T01:49:09.671Z,1028.63
2016-12-27T01:49:35.221Z,1028.69
2016-12-27T01:50:00.783Z,1028.68
2016-12-27T01:50:26.325Z,1028.76
2016-12-27T01:50:51.911Z,1028.71
2016-12-27T01:51:17.475Z,1028.67
2016-12-27T01:51:43.042Z,1028.61
2016-12-27T01:52:08.636Z,1028.67
2016-12-27T01:52:34.191Z,1028.58
2016-12-27T01:52:59.769Z,1028.66
2016-12-27T01:53:25.321Z,1028.71
2016-12-27T01:53:50.895Z,1028.67
2016-12-27T01:54:16.456Z,1028.65
2016-12-27T01:54:42.071Z,1028.64
2016-12-27T01:55:07.641Z,1028.61
2016-12-27T01:55:33.205Z,1028.58
2016-12-27T01:55:58.849Z,1028.6
2016-12-27T01:56:24.495Z,1028.66
2016-12-27T01:56:50.075Z,1028.62
2016-12-27T01:57:15.680Z,1028.66
2016-12-27T01:57:41.247Z,1028.52
2016-12-27T01:58:06.815Z,1028.55
2016-12-27T01:58:32.369Z,1028.59
2016-12-27T01:58:57.977Z,1028.59
2016-12-27T01:59:23.534Z,1028.61
2016-12-27T01:59:49.090Z,1028.67
2016-12-27T02:00:14.651Z,1028.63
2016-12-27T02:00:40.212Z,1028.65
2016-12-27T02:01:05.778Z,1028.74
2016-12-27T02:01:31.457Z,1028.63
2016-12-27T02:01:57.020Z,1028.74
2016-12-27T02:02:22.628Z,1028.72
2016-12-27T02:02:48.219Z,1028.68
2016-12-27T02:03:13.777Z,1028.76
2016-12-27T02:03:39.345Z,1028.83
2016-12-27T02:04:05.009Z,1028.81
2016-12-27T02:04:30.582Z,1028.83
2016-12-27T02:04:56.119Z,1028.77
2016-12-27T02:05:21.685Z,1028.78
2016-12-27T02:05:47.244Z,1028.71
2016-12-27T02:06:12.804Z,1028.79
2016-12-27T02:06:38.371Z,1028.69
2016-12-27T02:07:03.913Z,1028.77
2016-12-27T02:07:29.474Z,1028.83
2016-12-27T02:07:55.038Z,1028.83
2016-12-27T02:08:20.599Z,1028.89
2016-12-27T02:08:46.164Z,1028.91
2016-12-27T02:09:11.732Z,1028.88
2016-12-27T02:09:37.305Z,1028.82
2016-12-27T02:10:02.996Z,1028.89
2016-12-27T02:10:28.577Z,1028.88
2016-12-27T02:10:54.155Z,1028.86
2016-12-27T02:11:19.716Z,1028.88
2016-12-27T02:11:45.387Z,1028.86
2016-12-27T02:12:10.953Z,1028.84
2016-12-27T02:12:36.517Z,1028.82
2016-12-27T02:13:02.080Z,1028.79
2016-12-27T02:13:27.641Z,1028.87
2016-12-27T02:13:53.224Z,1028.88
2016-12-27T02:14:18.781Z,1028.96
2016-12-27T02:14:44.338Z,1029.03
2016-12-27T02:15:09.915Z,1028.88
2016-12-27T02:15:35.559Z,1028.91
2016-12-27T02:16:01.120Z,1028.94
2016-12-27T02:16:26.776Z,1028.92
2016-12-27T02:16:52.339Z,1028.87
2016-12-27T02:17:17.912Z,1028.91
2016-12-27T02:17:43.476Z,1028.92
2016-12-27T02:18:09.056Z,1028.99
2016-12-27T02:18:34.623Z,1028.92
2016-12-27T02:19:00.181Z,1028.99
2016-12-27T02:19:25.742Z,1028.97
2016-12-27T02:19:51.308Z,1028.95
2016-12-27T02:20:16.887Z,1028.91
2016-12-27T02:20:42.499Z,1028.85
2016-12-27T02:21:08.059Z,1028.88
2016-12-27T02:21:33.749Z,1028.9
2016-12-27T02:21:59.376Z,1028.95
2016-12-27T02:22:24.946Z,1028.94
2016-12-27T02:22:50.570Z,1028.94
2016-12-27T02:23:16.138Z,1028.97
2016-12-27T02:23:41.724Z,1028.99
2016-12-27T02:24:07.283Z,1028.94
2016-12-27T02:24:32.933Z,1029
2016-12-27T02:24:58.514Z,1029.01
2016-12-27T02:25:24.077Z,1029.08
2016-12-27T02:25:49.622Z,1029.05
2016-12-27T02:26:15.182Z,1029.08
2016-12-27T02:26:40.736Z,1029.04
2016-12-27T02:27:06.319Z,1029.05
2016-12-27T02:27:31.891Z,1029.09
2016-12-27T02:27:57.457Z,1028.99
2016-12-27T02:28:23.109Z,1029.02
2016-12-27T02:28:48.668Z,1029.07
2016-12-27T02:29:14.234Z,1029.04
2016-12-27T02:29:39.798Z,1029.02
2016-12-27T02:30:05.367Z,1029.12
2016-12-27T02:30:30.938Z,1029.08
2016-12-27T02:30:56.499Z,1029.02
2016-12-27T02:31:22.050Z,1029.05
2016-12-27T02:31:47.628Z,1029.02
2016-12-27T02:32:13.231Z,1028.93
2016-12-27T02:32:38.824Z,1028.96
2016-12-27T02:33:04.386Z,1029.05
2016-12-27T02:33:30.044Z,1029.07
2016-12-27T02:33:55.607Z,1029
2016-12-27T02:34:21.175Z,1028.99
2016-12-27T02:34:46.756Z,1029.04
2016-12-27T02:35:12.334Z,1029.07
2016-12-27T02:35:37.909Z,1029.08
2016-12-27T02:36:03.487Z,1029.04
2016-12-27T02:36:29.049Z,1029.13
2016-12-27T02:36:54.642Z,1029.15
2016-12-27T02:37:20.268Z,1029.12
2016-12-27T02:37:45.843Z,1029.15
2016-12-27T02:38:11.427Z,1029.15
2016-12-27T02:38:37.067Z,1029.14
2016-12-27T02:39:02.638Z,1029.13
2016-12-27T02:39:28.212Z,1029.12
2016-12-27T02:39:53.777Z,1029.11
2016-12-27T02:40:19.342Z,1029.16
2016-12-27T02:40:44.895Z,1029.18
2016-12-27T02:41:10.486Z,1029.15
2016-12-27T02:41:36.038Z,1029.13
2016-12-27T02:42:01.708Z,1029.11
2016-12-27T02:42:27.295Z,1029.16
2016-12-27T02:42:52.852Z,1029.18
2016-12-27T02:43:18.438Z,1029.15
2016-12-27T02:43:44.076Z,1029.03
2016-12-27T02:44:09.637Z,1029.13
2016-12-27T02:44:35.209Z,1029.2
2016-12-27T02:45:00.792Z,1029.24
2016-12-27T02:45:26.340Z,1029.24
2016-12-27T02:45:51.907Z,1029.2
2016-12-27T02:46:17.457Z,1029.27
2016-12-27T02:46:43.051Z,1029.21
2016-12-27T02:47:08.616Z,1029.26
2016-12-27T02:47:34.189Z,1029.23
2016-12-27T02:47:59.734Z,1029.25
2016-12-27T02:48:25.303Z,1029.3
2016-12-27T02:48:50.982Z,1029.2
2016-12-27T02:49:16.551Z,1029.25
2016-12-27T02:49:42.102Z,1029.23
2016-12-27T02:50:07.677Z,1029.26
2016-12-27T02:50:33.257Z,1029.28
2016-12-27T02:50:58.831Z,1029.28
2016-12-27T02:51:24.405Z,1029.27
2016-12-27T02:51:49.978Z,1029.27
2016-12-27T02:52:15.543Z,1029.3
2016-12-27T02:52:41.196Z,1029.31
2016-12-27T02:53:06.758Z,1029.12
2016-12-27T02:53:32.322Z,1029.13
2016-12-27T02:53:57.969Z,1029.24
2016-12-27T02:54:23.560Z,1029.27
2016-12-27T02:54:49.153Z,1029.19
2016-12-27T02:55:14.689Z,1029.27
2016-12-27T02:55:40.280Z,1029.32
2016-12-27T02:56:05.866Z,1029.29
2016-12-27T02:56:31.434Z,1029.27
2016-12-27T02:56:56.986Z,1029.28
2016-12-27T02:57:22.557Z,1029.32
2016-12-27T02:57:48.189Z,1029.36
2016-12-27T02:58:13.788Z,1029.36
2016-12-27T02:58:39.360Z,1029.43
2016-12-27T02:59:04.985Z,1029.39
2016-12-27T02:59:30.575Z,1029.34
2016-12-27T02:59:56.137Z,1029.33
2016-12-27T03:00:21.815Z,1029.4
2016-12-27T03:00:47.400Z,1029.4
2016-12-27T03:01:12.954Z,1029.37
2016-12-27T03:01:38.515Z,1029.44
2016-12-27T03:02:04.222Z,1029.34
2016-12-27T03:02:29.792Z,1029.42
2016-12-27T03:02:55.336Z,1029.42
2016-12-27T03:03:20.896Z,1029.47
2016-12-27T03:03:46.462Z,1029.46
2016-12-27T03:04:12.029Z,1029.48
2016-12-27T03:04:37.580Z,1029.48
2016-12-27T03:05:03.145Z,1029.44
2016-12-27T03:05:28.706Z,1029.44
2016-12-27T03:05:54.345Z,1029.49
2016-12-27T03:06:19.902Z,1029.57
2016-12-27T03:06:45.477Z,1029.6
2016-12-27T03:07:11.160Z,1029.58
2016-12-27T03:07:36.724Z,1029.6
2016-12-27T03:08:02.291Z,1029.56
2016-12-27T03:08:27.847Z,1029.62
2016-12-27T03:08:53.467Z,1029.61
2016-12-27T03:09:19.035Z,1029.59
2016-12-27T03:09:44.588Z,1029.63
2016-12-27T03:10:10.141Z,1029.63
2016-12-27T03:10:35.707Z,1029.67
2016-12-27T03:11:01.345Z,1029.57
2016-12-27T03:11:26.916Z,1029.64
2016-12-27T03:11:52.473Z,1029.66
2016-12-27T03:12:18.065Z,1029.69
2016-12-27T03:12:43.657Z,1029.7
2016-12-27T03:13:09.214Z,1029.71
2016-12-27T03:13:34.794Z,1029.67
2016-12-27T03:14:00.348Z,1029.71
2016-12-27T03:14:25.916Z,1029.66
2016-12-27T03:14:51.511Z,1029.59
2016-12-27T03:15:17.087Z,1029.61
2016-12-27T03:15:42.650Z,1029.61
2016-12-27T03:16:08.209Z,1029.63
2016-12-27T03:16:33.775Z,1029.63
2016-12-27T03:16:59.334Z,1029.57
2016-12-27T03:17:24.892Z,1029.57
2016-12-27T03:17:50.440Z,1029.58
2016-12-27T03:18:16.035Z,1029.6
2016-12-27T03:18:41.652Z,1029.57
2016-12-27T03:19:07.216Z,1029.53
2016-12-27T03:19:32.805Z,1029.52
2016-12-27T03:19:58.489Z,1029.55
2016-12-27T03:20:24.055Z,1029.52
2016-12-27T03:20:49.672Z,1029.54
2016-12-27T03:21:15.303Z,1029.55
2016-12-27T03:21:40.876Z,1029.6
2016-12-27T03:22:06.514Z,1029.53
2016-12-27T03:22:32.112Z,1029.51
2016-12-27T03:22:57.669Z,1029.49
2016-12-27T03:23:23.247Z,1029.49
2016-12-27T03:23:48.797Z,1029.53
2016-12-27T03:24:14.365Z,1029.5
2016-12-27T03:24:39.912Z,1029.57
2016-12-27T03:25:05.471Z,1029.57
2016-12-27T03:25:31.027Z,1029.64
2016-12-27T03:25:56.618Z,1029.62
2016-12-27T03:26:22.183Z,1029.53
2016-12-27T03:26:47.745Z,1029.58
2016-12-27T03:27:13.304Z,1029.56
2016-12-27T03:27:38.882Z,1029.69
2016-12-27T03:28:04.455Z,1029.54
2016-12-27T03:28:30.008Z,1029.55
2016-12-27T03:28:55.571Z,1029.58
2016-12-27T03:29:21.134Z,1029.58
2016-12-27T03:29:46.736Z,1029.5
2016-12-27T03:30:12.395Z,1029.5
2016-12-27T03:30:37.961Z,1029.56
2016-12-27T03:31:03.531Z,1029.56
2016-12-27T03:31:29.112Z,1029.55
2016-12-27T03:31:54.690Z,1029.67
2016-12-27T03:32:20.249Z,1029.6
2016-12-27T03:32:45.824Z,1029.6
2016-12-27T03:33:11.377Z,1029.6
2016-12-27T03:33:36.983Z,1029.59
2016-12-27T03:34:02.544Z,1029.49
2016-12-27T03:34:28.107Z,1029.59
2016-12-27T03:34:53.684Z,1029.58
2016-12-27T03:35:19.262Z,1029.58
2016-12-27T03:35:44.825Z,1029.47
2016-12-27T03:36:10.408Z,1029.54
2016-12-27T03:36:35.980Z,1029.6
2016-12-27T03:37:01.542Z,1029.66
2016-12-27T03:37:27.171Z,1029.56
2016-12-27T03:37:52.749Z,1029.61
2016-12-27T03:38:18.315Z,1029.5
2016-12-27T03:38:43.902Z,1029.63
2016-12-27T03:39:09.455Z,1029.66
2016-12-27T03:39:35.022Z,1029.68
2016-12-27T03:40:00.588Z,1029.64
2016-12-27T03:40:26.172Z,1029.65
2016-12-27T03:40:51.746Z,1029.62
2016-12-27T03:41:17.347Z,1029.56
2016-12-27T03:41:42.893Z,1029.55
2016-12-27T03:42:08.438Z,1029.56
2016-12-27T03:42:33.996Z,1029.61
2016-12-27T03:42:59.546Z,1029.68
2016-12-27T03:43:25.112Z,1029.74
2016-12-27T03:43:50.680Z,1029.77
2016-12-27T03:44:16.254Z,1029.8
2016-12-27T03:44:41.905Z,1029.73
2016-12-27T03:45:07.480Z,1029.67
2016-12-27T03:45:33.044Z,1029.69
2016-12-27T03:45:58.602Z,1029.77
2016-12-27T03:46:24.194Z,1029.73
2016-12-27T03:46:49.749Z,1029.81
2016-12-27T03:47:15.296Z,1029.73
2016-12-27T03:47:40.858Z,1029.77
2016-12-27T03:48:06.430Z,1029.81
2016-12-27T03:48:31.982Z,1029.79
2016-12-27T03:48:57.562Z,1029.71
2016-12-27T03:49:23.125Z,1029.82
2016-12-27T03:49:48.687Z,1029.83
2016-12-27T03:50:14.246Z,1029.86
2016-12-27T03:50:39.793Z,1029.85
2016-12-27T03:51:05.380Z,1029.9
2016-12-27T03:51:30.921Z,1029.91
2016-12-27T03:51:56.551Z,1029.75
2016-12-27T03:52:22.113Z,1029.8
2016-12-27T03:52:47.662Z,1029.82
2016-12-27T03:53:13.217Z,1029.83
2016-12-27T03:53:38.855Z,1029.79
2016-12-27T03:54:04.394Z,1029.74
2016-12-27T03:54:29.980Z,1029.76
2016-12-27T03:54:55.618Z,1029.78
2016-12-27T03:55:21.236Z,1029.78
2016-12-27T03:55:46.796Z,1029.83
2016-12-27T03:56:12.419Z,1029.76
2016-12-27T03:56:38.025Z,1029.9
2016-12-27T03:57:03.634Z,1029.88
2016-12-27T03:57:29.255Z,1029.88
2016-12-27T03:57:54.807Z,1029.94
2016-12-27T03:58:20.363Z,1029.9
2016-12-27T03:58:46.019Z,1029.85
2016-12-27T03:59:11.572Z,1029.93
2016-12-27T03:59:37.144Z,1029.9
2016-12-27T04:00:02.807Z,1029.89
2016-12-27T04:00:28.376Z,1029.89
2016-12-27T04:00:53.925Z,1029.77
2016-12-27T04:01:19.485Z,1029.89
2016-12-27T04:01:45.184Z,1029.94
2016-12-27T04:02:10.752Z,1029.89
2016-12-27T04:02:36.309Z,1029.97
2016-12-27T04:03:02.028Z,1029.94
2016-12-27T04:03:27.651Z,1029.94
2016-12-27T04:03:53.228Z,1029.97
2016-12-27T04:04:18.798Z,1029.95
2016-12-27T04:04:44.350Z,1029.96
2016-12-27T04:05:09.923Z,1029.98
2016-12-27T04:05:35.499Z,1030
2016-12-27T04:06:01.043Z,1029.96
2016-12-27T04:06:26.610Z,1029.97
2016-12-27T04:06:52.216Z,1029.96
2016-12-27T04:07:17.780Z,1029.98
2016-12-27T04:07:43.338Z,1029.89
2016-12-27T04:08:08.913Z,1029.88
2016-12-27T04:08:34.464Z,1029.82
2016-12-27T04:09:00.030Z,1030
2016-12-27T04:09:25.596Z,1029.95
2016-12-27T04:09:51.179Z,1029.97
2016-12-27T04:10:16.794Z,1029.88
2016-12-27T04:10:42.527Z,1029.89
2016-12-27T04:11:08.172Z,1029.94
2016-12-27T04:11:33.740Z,1029.9
2016-12-27T04:11:59.301Z,1029.93
2016-12-27T04:12:24.843Z,1029.96
2016-12-27T04:12:50.378Z,1030.04
2016-12-27T04:13:16.028Z,1029.99
2016-12-27T04:13:41.596Z,1029.99
2016-12-27T04:14:07.158Z,1029.96
2016-12-27T04:14:32.783Z,1029.98
2016-12-27T04:14:58.412Z,1030
2016-12-27T04:15:23.982Z,1029.96
2016-12-27T04:15:49.530Z,1029.94
2016-12-27T04:16:15.223Z,1029.99
2016-12-27T04:16:40.787Z,1030.03
2016-12-27T04:17:06.361Z,1030
2016-12-27T04:17:31.959Z,1030.02
2016-12-27T04:17:57.521Z,1030.03
2016-12-27T04:18:23.093Z,1030.05
2016-12-27T04:18:48.675Z,1030.04
2016-12-27T04:19:14.229Z,1030.01
2016-12-27T04:19:39.794Z,1029.98
2016-12-27T04:20:05.362Z,1030
2016-12-27T04:20:30.932Z,1029.98
2016-12-27T04:20:56.485Z,1030.07
2016-12-27T04:21:22.145Z,1030.05
2016-12-27T04:21:47.688Z,1030.03
2016-12-27T04:22:13.246Z,1030.09
2016-12-27T04:22:38.793Z,1030.01
2016-12-27T04:23:04.353Z,1030.08
2016-12-27T04:23:29.962Z,1030.06
2016-12-27T04:23:55.512Z,1030.06
2016-12-27T04:24:21.064Z,1030.05
2016-12-27T04:24:46.631Z,1030.13
2016-12-27T04:25:12.202Z,1030.08
2016-12-27T04:25:37.758Z,1030.14
2016-12-27T04:26:03.318Z,1029.96
2016-12-27T04:26:28.893Z,1030.06
2016-12-27T04:26:54.448Z,1030.07
2016-12-27T04:27:20.011Z,1030.02
2016-12-27T04:27:45.555Z,1030
2016-12-27T04:28:11.128Z,1030.1
2016-12-27T04:28:36.702Z,1030.08
2016-12-27T04:29:02.255Z,1029.92
2016-12-27T04:30:11.122Z,1030.03
2016-12-27T04:30:36.683Z,1029.96
2016-12-27T04:31:02.230Z,1030.08
2016-12-27T04:31:27.804Z,1030.05
2016-12-27T04:31:53.355Z,1030.05
2016-12-27T04:32:18.917Z,1030.11
2016-12-27T04:32:44.485Z,1030.1
2016-12-27T04:33:10.044Z,1030.02
2016-12-27T04:33:35.599Z,1030.02
2016-12-27T04:34:01.173Z,1030.01
2016-12-27T04:34:26.741Z,1030
2016-12-27T04:34:52.289Z,1030.12
2016-12-27T04:35:17.979Z,1030.13
2016-12-27T04:35:43.556Z,1030.14
2016-12-27T04:36:09.171Z,1030.17
2016-12-27T04:36:34.836Z,1030.19
2016-12-27T04:37:00.385Z,1030.15
2016-12-27T04:37:25.953Z,1030.17
2016-12-27T04:37:51.649Z,1030.17
2016-12-27T04:38:17.229Z,1030.21
2016-12-27T04:38:42.782Z,1030.19
2016-12-27T04:39:08.341Z,1030.25
2016-12-27T04:39:33.926Z,1030.19
2016-12-27T04:39:59.496Z,1030.24
2016-12-27T04:40:25.043Z,1030.25
2016-12-27T04:40:50.592Z,1030.26
2016-12-27T04:41:16.157Z,1030.28
2016-12-27T04:41:41.762Z,1030.28
2016-12-27T04:42:07.410Z,1030.27
2016-12-27T04:42:32.968Z,1030.28
2016-12-27T04:42:58.510Z,1030.29
2016-12-27T04:43:24.220Z,1030.3
2016-12-27T04:43:49.786Z,1030.23
2016-12-27T04:44:15.335Z,1030.31
2016-12-27T04:44:40.937Z,1030.29
2016-12-27T04:45:06.487Z,1030.26
2016-12-27T04:45:32.050Z,1030.27
2016-12-27T04:45:57.605Z,1030.33
2016-12-27T04:46:23.233Z,1030.33
2016-12-27T04:46:48.807Z,1030.38
2016-12-27T04:47:14.372Z,1030.37
2016-12-27T04:47:39.941Z,1030.41
2016-12-27T04:48:05.512Z,1030.39
2016-12-27T04:48:31.215Z,1030.39
2016-12-27T04:48:56.740Z,1030.38
2016-12-27T04:49:22.312Z,1030.42
2016-12-27T04:49:47.867Z,1030.45
2016-12-27T04:50:13.429Z,1030.49
2016-12-27T04:50:38.991Z,1030.49
2016-12-27T04:51:04.540Z,1030.5
2016-12-27T04:51:30.105Z,1030.52
2016-12-27T04:52:49.228Z,1030.52
2016-12-27T04:53:14.960Z,1030.52
2016-12-27T04:53:40.522Z,1030.59
2016-12-27T04:54:06.091Z,1030.48
2016-12-27T04:54:31.739Z,1030.57
2016-12-27T04:54:57.298Z,1030.59
2016-12-27T04:55:22.876Z,1030.59
2016-12-27T04:55:48.434Z,1030.62
2016-12-27T04:56:13.982Z,1030.62
2016-12-27T04:56:39.536Z,1030.63
2016-12-27T04:57:05.137Z,1030.67
2016-12-27T04:57:30.699Z,1030.62
2016-12-27T04:57:56.258Z,1030.54
2016-12-27T04:58:21.946Z,1030.56
2016-12-27T04:58:47.528Z,1030.59
2016-12-27T04:59:13.086Z,1030.66
2016-12-27T04:59:38.786Z,1030.64
2016-12-27T05:00:04.363Z,1030.63
2016-12-27T05:00:29.922Z,1030.61
2016-12-27T05:00:55.477Z,1030.68
2016-12-27T05:01:21.018Z,1030.65
2016-12-27T05:01:46.576Z,1030.64
2016-12-27T05:02:12.136Z,1030.67
2016-12-27T05:02:37.702Z,1030.62
2016-12-27T05:03:03.261Z,1030.67
2016-12-27T05:03:28.848Z,1030.72
2016-12-27T05:03:54.546Z,1030.63
2016-12-27T05:04:20.106Z,1030.7
2016-12-27T05:04:45.703Z,1030.71
2016-12-27T05:05:49.452Z,1030.77
2016-12-27T05:06:15.006Z,1030.81
2016-12-27T05:06:40.563Z,1030.77
2016-12-27T05:07:06.125Z,1030.76
2016-12-27T05:07:31.678Z,1030.81
2016-12-27T05:07:57.222Z,1030.73
2016-12-27T05:08:22.792Z,1030.78
2016-12-27T05:08:48.370Z,1030.74
2016-12-27T05:09:13.938Z,1030.76
2016-12-27T05:10:27.878Z,1030.8
2016-12-27T05:10:53.435Z,1030.81
2016-12-27T05:11:19.043Z,1030.89
2016-12-27T05:11:44.601Z,1030.85
2016-12-27T05:12:10.169Z,1030.84
2016-12-27T05:12:35.718Z,1030.9
2016-12-27T05:13:01.294Z,1030.84
2016-12-27T05:13:26.843Z,1030.86
2016-12-27T05:13:52.411Z,1030.89
2016-12-27T05:14:17.987Z,1030.95
2016-12-27T05:14:43.526Z,1030.96
2016-12-27T05:15:09.175Z,1030.99